createdAt,value
2022-10-18T00:00:12.073Z,17.15
2022-10-18T00:01:33.473Z,17.06
2022-10-18T00:02:55.185Z,18.06
2022-10-18T00:04:16.700Z,17.79
2022-10-18T00:05:38.274Z,15.78
2022-10-18T00:06:59.507Z,15.61
2022-10-18T00:08:20.924Z,15.94
2022-10-18T00:09:42.016Z,15.23
2022-10-18T00:11:03.140Z,16.31
2022-10-18T00:12:24.487Z,15.66
2022-10-18T00:13:46.207Z,16.75
2022-10-18T00:15:08.810Z,17.60
2022-10-18T00:16:30.239Z,16.51
2022-10-18T00:17:53.445Z,17.04
2022-10-18T00:20:35.467Z,15.68
2022-10-18T00:21:56.953Z,16.61
2022-10-18T00:23:18.209Z,16.83
2022-10-18T00:24:39.099Z,16.84
2022-10-18T00:26:09.650Z,19.00
2022-10-18T00:27:31.305Z,18.63
2022-10-18T00:28:53.813Z,19.67
2022-10-18T00:30:15.258Z,19.95
2022-10-18T00:31:37.178Z,22.17
2022-10-18T00:34:10.722Z,15.23
2022-10-18T00:35:33.981Z,18.95
2022-10-18T00:36:56.182Z,18.69
2022-10-18T00:38:17.439Z,18.38
2022-10-18T00:39:41.037Z,17.59
2022-10-18T00:41:03.030Z,18.62
2022-10-18T00:42:30.121Z,24.20
2022-10-18T00:44:00.283Z,23.67
2022-10-18T00:45:22.754Z,20.37
2022-10-18T00:46:46.202Z,14.02
2022-10-18T00:48:07.618Z,17.37
2022-10-18T00:50:47.051Z,17.96
2022-10-18T00:52:28.707Z,17.27
2022-10-18T00:53:50.060Z,19.44
2022-10-18T00:55:11.852Z,19.87
2022-10-18T00:56:33.240Z,21.20
2022-10-18T00:59:16.654Z,23.01
2022-10-18T01:00:38.147Z,21.81
2022-10-18T01:01:59.758Z,19.94
2022-10-18T01:03:21.140Z,19.46
2022-10-18T01:04:42.801Z,17.92
2022-10-18T01:06:04.689Z,15.97
2022-10-18T01:07:29.803Z,15.63
2022-10-18T01:09:13.045Z,14.04
2022-10-18T01:10:47.106Z,14.56
2022-10-18T01:12:40.892Z,14.23
2022-10-18T01:14:20.587Z,14.02
2022-10-18T01:15:58.051Z,13.70
2022-10-18T01:17:22.693Z,13.21
2022-10-18T01:20:03.833Z,13.74
2022-10-18T01:21:29.262Z,13.82
2022-10-18T01:22:56.598Z,14.41
2022-10-18T01:24:24.254Z,15.13
2022-10-18T01:25:58.665Z,15.50
2022-10-18T01:27:23.685Z,15.68
2022-10-18T01:29:03.874Z,16.06
2022-10-18T01:31:57.677Z,14.33
2022-10-18T01:34:40.643Z,14.39
2022-10-18T01:37:18.992Z,13.81
2022-10-18T01:38:40.577Z,11.95
2022-10-18T01:40:02.571Z,14.56
2022-10-18T01:41:24.049Z,15.48
2022-10-18T01:42:45.894Z,15.13
2022-10-18T01:44:08.837Z,14.48
2022-10-18T01:45:29.961Z,14.34
2022-10-18T01:46:52.132Z,13.92
2022-10-18T01:48:13.503Z,14.47
2022-10-18T01:49:34.635Z,14.59
2022-10-18T01:50:56.031Z,14.14
2022-10-18T01:52:17.187Z,15.00
2022-10-18T01:53:38.749Z,14.05
2022-10-18T01:54:59.871Z,14.52
2022-10-18T01:57:00.348Z,14.90
2022-10-18T01:59:56.462Z,15.49
2022-10-18T02:03:22.566Z,13.88
2022-10-18T02:06:10.181Z,11.11
2022-10-18T02:08:12.305Z,13.60
2022-10-18T02:09:26.176Z,12.84
2022-10-18T02:10:58.583Z,13.81
2022-10-18T02:12:19.964Z,13.14
2022-10-18T02:13:45.241Z,13.51
2022-10-18T02:15:06.971Z,12.86
2022-10-18T02:18:40.833Z,13.93
2022-10-18T02:20:02.624Z,13.14
2022-10-18T02:21:24.158Z,13.00
2022-10-18T02:22:45.479Z,13.16
2022-10-18T02:24:07.035Z,13.28
2022-10-18T02:25:29.595Z,12.56
2022-10-18T02:26:50.996Z,13.29
2022-10-18T02:28:12.447Z,12.94
2022-10-18T02:29:34.090Z,12.77
2022-10-18T02:31:05.101Z,12.57
2022-10-18T02:32:30.744Z,12.65
2022-10-18T02:35:29.057Z,12.34
2022-10-18T02:36:54.772Z,13.24
2022-10-18T02:38:16.058Z,12.62
2022-10-18T02:39:40.917Z,13.25
2022-10-18T02:41:02.328Z,13.52
2022-10-18T02:42:23.772Z,13.87
2022-10-18T02:43:44.809Z,14.12
2022-10-18T02:45:06.508Z,15.57
2022-10-18T02:46:28.348Z,14.91
2022-10-18T02:47:50.243Z,14.52
2022-10-18T02:49:11.320Z,14.38
2022-10-18T02:50:32.574Z,13.29
2022-10-18T02:51:54.590Z,13.36
2022-10-18T02:53:15.796Z,13.57
2022-10-18T02:54:36.775Z,14.22
2022-10-18T02:55:57.759Z,14.16
2022-10-18T02:57:18.679Z,13.22
2022-10-18T02:58:40.273Z,13.53
2022-10-18T03:00:01.400Z,14.38
2022-10-18T03:01:22.629Z,13.28
2022-10-18T03:02:44.285Z,13.01
2022-10-18T03:04:05.801Z,12.64
2022-10-18T03:05:26.815Z,13.26
2022-10-18T03:06:48.248Z,12.84
2022-10-18T03:08:09.402Z,12.18
2022-10-18T03:09:30.924Z,12.81
2022-10-18T03:10:52.401Z,12.69
2022-10-18T03:12:13.599Z,13.11
2022-10-18T03:13:34.928Z,12.45
2022-10-18T03:14:56.390Z,13.34
2022-10-18T03:16:18.145Z,13.58
2022-10-18T03:17:39.375Z,13.54
2022-10-18T03:19:01.061Z,14.06
2022-10-18T03:20:22.647Z,14.47
2022-10-18T03:21:43.858Z,13.98
2022-10-18T03:23:05.242Z,14.43
2022-10-18T03:24:26.273Z,13.23
2022-10-18T03:25:47.220Z,12.98
2022-10-18T03:27:08.168Z,12.78
2022-10-18T03:28:29.107Z,13.16
2022-10-18T03:29:50.413Z,12.56
2022-10-18T03:31:11.411Z,11.84
2022-10-18T03:32:32.888Z,12.53
2022-10-18T03:33:54.337Z,12.43
2022-10-18T03:35:15.569Z,12.81
2022-10-18T03:36:36.862Z,12.79
2022-10-18T03:37:58.131Z,14.46
2022-10-18T03:39:19.476Z,14.99
2022-10-18T03:40:40.910Z,14.31
2022-10-18T03:42:02.588Z,13.87
2022-10-18T03:43:24.263Z,14.81
2022-10-18T03:44:45.607Z,14.22
2022-10-18T03:46:07.462Z,14.79
2022-10-18T03:47:29.087Z,14.26
2022-10-18T03:48:50.763Z,14.23
2022-10-18T03:50:12.411Z,13.08
2022-10-18T03:51:34.018Z,12.72
2022-10-18T03:52:55.233Z,14.15
2022-10-18T03:54:16.611Z,26.80
2022-10-18T03:55:38.304Z,14.11
2022-10-18T03:56:59.772Z,18.58
2022-10-18T03:58:21.446Z,22.52
2022-10-18T03:59:42.727Z,33.04
2022-10-18T04:01:04.307Z,24.26
2022-10-18T04:02:25.734Z,16.04
2022-10-18T04:03:47.342Z,17.77
2022-10-18T04:05:08.954Z,26.73
2022-10-18T04:06:30.594Z,27.46
2022-10-18T04:07:51.729Z,22.18
2022-10-18T04:09:12.849Z,16.79
2022-10-18T04:10:36.285Z,15.48
2022-10-18T04:11:57.925Z,17.57
2022-10-18T04:13:18.894Z,18.12
2022-10-18T04:14:40.142Z,13.44
2022-10-18T04:16:06.869Z,13.79
2022-10-18T04:17:28.309Z,13.86
2022-10-18T04:18:49.623Z,15.48
2022-10-18T04:20:11.653Z,15.13
2022-10-18T04:21:32.924Z,14.23
2022-10-18T04:22:54.386Z,13.87
2022-10-18T04:24:16.791Z,14.16
2022-10-18T04:25:37.975Z,15.30
2022-10-18T04:26:59.647Z,14.79
2022-10-18T04:28:21.024Z,14.99
2022-10-18T04:29:42.626Z,14.23
2022-10-18T04:31:05.349Z,13.78
2022-10-18T04:32:26.817Z,14.28
2022-10-18T04:33:47.851Z,14.37
2022-10-18T04:35:09.056Z,14.29
2022-10-18T04:36:31.096Z,15.23
2022-10-18T04:37:52.487Z,15.28
2022-10-18T04:39:14.101Z,16.87
2022-10-18T04:40:36.242Z,15.50
2022-10-18T04:41:57.796Z,15.99
2022-10-18T04:43:19.123Z,16.64
2022-10-18T04:44:40.474Z,16.59
2022-10-18T04:46:01.878Z,16.80
2022-10-18T04:47:23.303Z,18.48
2022-10-18T04:48:44.863Z,18.06
2022-10-18T04:50:06.891Z,17.87
2022-10-18T04:51:28.882Z,18.22
2022-10-18T04:54:10.880Z,23.15
2022-10-18T04:55:32.393Z,18.41
2022-10-18T04:56:54.330Z,18.82
2022-10-18T04:58:19.051Z,17.58
2022-10-18T04:59:40.416Z,18.30
2022-10-18T05:01:04.525Z,18.01
2022-10-18T05:02:25.633Z,17.76
2022-10-18T05:03:54.866Z,19.01
2022-10-18T05:05:18.072Z,22.24
2022-10-18T05:06:39.521Z,21.13
2022-10-18T05:08:00.752Z,21.08
2022-10-18T05:09:24.105Z,20.99
2022-10-18T05:10:46.346Z,19.27
2022-10-18T05:12:07.879Z,15.01
2022-10-18T05:13:29.421Z,18.60
2022-10-18T05:14:50.740Z,17.93
2022-10-18T05:16:13.112Z,18.01
2022-10-18T05:17:34.454Z,17.91
2022-10-18T05:18:56.025Z,18.29
2022-10-18T05:20:19.251Z,17.99
2022-10-18T05:21:40.602Z,17.91
2022-10-18T05:23:01.945Z,16.80
2022-10-18T05:24:26.880Z,17.65
2022-10-18T05:27:08.357Z,18.58
2022-10-18T05:28:45.425Z,15.95
2022-10-18T05:29:53.112Z,19.87
2022-10-18T05:31:14.674Z,22.02
2022-10-18T05:32:36.956Z,24.48
2022-10-18T05:33:59.580Z,22.07
2022-10-18T05:35:20.955Z,21.54
2022-10-18T05:36:42.368Z,22.61
2022-10-18T05:38:04.554Z,22.49
2022-10-18T05:40:47.491Z,20.89
2022-10-18T05:42:08.643Z,22.00
2022-10-18T05:43:29.991Z,22.51
2022-10-18T05:44:53.718Z,21.53
2022-10-18T05:46:15.912Z,25.11
2022-10-18T05:47:37.612Z,23.89
2022-10-18T05:48:59.181Z,22.34
2022-10-18T05:50:20.555Z,23.71
2022-10-18T05:51:41.636Z,22.41
2022-10-18T05:53:12.094Z,22.98
2022-10-18T05:54:26.023Z,24.24
2022-10-18T05:55:47.282Z,20.94
2022-10-18T05:57:09.204Z,23.31
2022-10-18T05:58:30.469Z,21.48
2022-10-18T05:59:51.769Z,21.34
2022-10-18T06:01:13.321Z,21.47
2022-10-18T06:02:34.963Z,21.58
2022-10-18T06:03:58.639Z,21.41
2022-10-18T06:05:20.009Z,21.57
2022-10-18T06:06:42.982Z,22.24
2022-10-18T06:08:06.581Z,23.14
2022-10-18T06:09:28.060Z,21.79
2022-10-18T06:10:49.340Z,21.36
2022-10-18T06:12:11.091Z,21.92
2022-10-18T06:13:33.952Z,20.78
2022-10-18T06:14:55.486Z,15.92
2022-10-18T06:16:19.282Z,20.58
2022-10-18T06:17:40.674Z,21.48
2022-10-18T06:19:01.926Z,20.08
2022-10-18T06:20:23.450Z,20.64
2022-10-18T06:21:44.772Z,21.28
2022-10-18T06:23:06.715Z,19.88
2022-10-18T06:24:28.170Z,18.94
2022-10-18T06:25:50.947Z,19.31
2022-10-18T06:27:12.024Z,19.69
2022-10-18T06:28:35.416Z,19.15
2022-10-18T06:31:17.301Z,18.68
2022-10-18T06:32:38.414Z,18.63
2022-10-18T06:33:59.898Z,19.28
2022-10-18T06:35:21.349Z,18.82
2022-10-18T06:36:42.983Z,18.07
2022-10-18T06:38:04.434Z,18.62
2022-10-18T06:39:25.686Z,17.25
2022-10-18T06:40:47.540Z,16.72
2022-10-18T06:42:08.766Z,17.68
2022-10-18T06:43:30.050Z,19.29
2022-10-18T06:44:51.292Z,18.11
2022-10-18T06:46:13.580Z,16.16
2022-10-18T06:47:35.059Z,17.23
2022-10-18T06:48:56.392Z,16.73
2022-10-18T06:50:18.256Z,15.44
2022-10-18T06:51:40.376Z,17.15
2022-10-18T06:53:03.303Z,21.90
2022-10-18T06:55:35.993Z,17.88
2022-10-18T06:56:57.679Z,22.55
2022-10-18T06:58:20.416Z,17.66
2022-10-18T06:59:41.903Z,20.52
2022-10-18T07:01:07.944Z,17.36
2022-10-18T07:02:29.227Z,17.83
2022-10-18T07:03:52.080Z,19.83
2022-10-18T07:05:15.677Z,16.88
2022-10-18T07:06:37.271Z,15.25
2022-10-18T07:07:58.832Z,15.79
2022-10-18T07:09:20.241Z,17.19
2022-10-18T07:10:41.773Z,17.12
2022-10-18T07:12:03.795Z,14.87
2022-10-18T07:13:32.585Z,15.65
2022-10-18T07:14:51.054Z,15.45
2022-10-18T07:16:17.409Z,15.64
2022-10-18T07:17:37.649Z,15.35
2022-10-18T07:18:59.226Z,15.14
2022-10-18T07:20:20.989Z,14.74
2022-10-18T07:21:42.285Z,14.54
2022-10-18T07:23:03.810Z,15.83
2022-10-18T07:24:26.638Z,15.11
2022-10-18T07:25:48.121Z,14.94
2022-10-18T07:27:09.519Z,16.24
2022-10-18T07:28:30.999Z,15.48
2022-10-18T07:29:52.436Z,15.06
2022-10-18T07:31:14.647Z,14.71
2022-10-18T07:32:36.022Z,18.38
2022-10-18T07:33:57.459Z,16.12
2022-10-18T07:35:23.361Z,14.53
2022-10-18T07:36:44.952Z,15.58
2022-10-18T07:38:07.331Z,15.03
2022-10-18T07:39:28.656Z,14.61
2022-10-18T07:42:04.405Z,10.56
2022-10-18T07:43:25.930Z,15.23
2022-10-18T07:44:47.042Z,14.55
2022-10-18T07:46:09.762Z,14.60
2022-10-18T07:47:34.345Z,14.66
2022-10-18T07:48:55.267Z,14.11
2022-10-18T07:50:19.731Z,15.18
2022-10-18T07:51:41.239Z,17.36
2022-10-18T07:53:03.731Z,15.63
2022-10-18T07:54:25.162Z,15.75
2022-10-18T07:56:57.759Z,11.65
2022-10-18T07:58:21.663Z,14.58
2022-10-18T07:59:43.146Z,14.13
2022-10-18T08:01:08.382Z,13.64
2022-10-18T08:02:29.469Z,14.17
2022-10-18T08:03:53.461Z,15.28
2022-10-18T08:05:14.752Z,15.36
2022-10-18T08:06:36.101Z,14.14
2022-10-18T08:09:08.243Z,13.96
2022-10-18T08:10:29.713Z,13.61
2022-10-18T08:11:51.080Z,14.59
2022-10-18T08:13:12.788Z,14.45
2022-10-18T08:14:33.970Z,15.78
2022-10-18T08:16:09.767Z,14.16
2022-10-18T08:17:31.469Z,14.37
2022-10-18T08:18:53.465Z,11.29
2022-10-18T08:20:29.912Z,13.93
2022-10-18T08:21:37.976Z,14.16
2022-10-18T08:23:01.739Z,13.44
2022-10-18T08:24:23.032Z,13.42
2022-10-18T08:25:45.253Z,13.13
2022-10-18T08:27:07.395Z,15.56
2022-10-18T08:28:28.803Z,14.16
2022-10-18T08:29:50.216Z,14.32
2022-10-18T08:31:14.738Z,14.48
2022-10-18T08:32:36.368Z,16.29
2022-10-18T08:33:59.238Z,14.68
2022-10-18T08:35:20.265Z,13.89
2022-10-18T08:36:43.799Z,14.39
2022-10-18T08:38:05.012Z,15.56
2022-10-18T08:39:26.918Z,13.07
2022-10-18T08:40:48.275Z,13.02
2022-10-18T08:42:42.228Z,13.72
2022-10-18T08:44:07.762Z,13.66
2022-10-18T08:45:41.812Z,13.81
2022-10-18T08:46:57.452Z,20.21
2022-10-18T08:48:36.503Z,14.85
2022-10-18T08:50:00.965Z,11.68
2022-10-18T08:51:29.110Z,11.16
2022-10-18T08:52:59.821Z,16.84
2022-10-18T08:54:30.967Z,11.31
2022-10-18T08:55:58.171Z,11.36
2022-10-18T08:57:19.860Z,12.29
2022-10-18T08:58:43.967Z,10.09
2022-10-18T09:01:40.951Z,7.55
2022-10-18T09:04:48.131Z,9.64
2022-10-18T09:08:03.375Z,10.01
2022-10-18T09:09:46.440Z,8.67
2022-10-18T09:11:28.292Z,8.59
2022-10-18T09:13:05.417Z,9.07
2022-10-18T09:14:42.463Z,8.51
2022-10-18T09:16:05.286Z,8.64
2022-10-18T09:19:01.857Z,9.26
2022-10-18T09:21:53.515Z,7.59
2022-10-18T09:23:19.944Z,7.29
2022-10-18T09:26:16.881Z,7.54
2022-10-18T09:31:53.179Z,8.91
2022-10-18T09:34:40.931Z,7.80
2022-10-18T09:36:05.005Z,8.16
2022-10-18T09:37:29.283Z,8.14
2022-10-18T09:39:00.289Z,7.64
2022-10-18T09:40:26.337Z,7.18
2022-10-18T09:41:50.383Z,6.99
2022-10-18T09:43:14.965Z,7.09
2022-10-18T09:44:47.637Z,7.41
2022-10-18T09:47:37.155Z,7.56
2022-10-18T09:49:01.729Z,7.93
2022-10-18T09:50:26.570Z,8.13
2022-10-18T09:51:48.335Z,8.70
2022-10-18T09:53:13.279Z,8.06
2022-10-18T09:54:39.692Z,7.52
2022-10-18T09:57:34.931Z,8.22
2022-10-18T09:58:56.694Z,8.33
2022-10-18T10:01:34.907Z,8.18
2022-10-18T10:02:56.936Z,7.59
2022-10-18T10:04:18.277Z,7.98
2022-10-18T10:05:39.718Z,8.47
2022-10-18T10:07:02.476Z,7.49
2022-10-18T10:08:27.668Z,7.56
2022-10-18T10:09:57.708Z,8.01
2022-10-18T10:11:35.855Z,8.41
2022-10-18T10:13:17.302Z,7.88
2022-10-18T10:14:44.642Z,8.02
2022-10-18T10:16:06.637Z,6.61
2022-10-18T10:17:31.472Z,6.66
2022-10-18T10:20:24.670Z,6.62
2022-10-18T10:21:48.520Z,7.59
2022-10-18T10:23:25.553Z,7.34
2022-10-18T10:26:02.994Z,6.91
2022-10-18T10:27:29.703Z,7.12
2022-10-18T10:28:51.289Z,5.72
2022-10-18T10:30:26.970Z,6.38
2022-10-18T10:31:52.208Z,6.39
2022-10-18T10:33:33.341Z,6.02
2022-10-18T10:34:54.745Z,5.86
2022-10-18T10:36:19.200Z,5.37
2022-10-18T10:37:41.623Z,5.74
2022-10-18T10:40:36.232Z,5.67
2022-10-18T10:41:58.562Z,5.86
2022-10-18T10:43:38.187Z,5.74
2022-10-18T10:44:56.229Z,5.68
2022-10-18T10:46:20.287Z,5.81
2022-10-18T10:47:41.496Z,4.61
2022-10-18T10:50:28.044Z,5.09
2022-10-18T10:52:08.348Z,5.36
2022-10-18T10:55:05.701Z,5.35
2022-10-18T10:56:27.468Z,4.99
2022-10-18T10:57:50.607Z,4.12
2022-10-18T10:59:16.701Z,4.32
2022-10-18T11:00:42.909Z,4.24
2022-10-18T11:02:16.984Z,4.01
2022-10-18T11:03:39.031Z,4.04
2022-10-18T11:05:18.271Z,4.63
2022-10-18T11:06:58.106Z,4.12
2022-10-18T11:08:23.952Z,4.67
2022-10-18T11:09:57.211Z,4.65
2022-10-18T11:11:27.267Z,4.11
2022-10-18T11:13:08.639Z,3.98
2022-10-18T11:14:32.378Z,4.73
2022-10-18T11:17:37.404Z,4.29
2022-10-18T11:20:24.340Z,4.24
2022-10-18T11:21:45.741Z,3.94
2022-10-18T11:23:09.748Z,4.22
2022-10-18T11:24:32.152Z,3.98
2022-10-18T11:25:59.868Z,4.59
2022-10-18T11:27:29.112Z,3.56
2022-10-18T11:30:46.952Z,3.27
2022-10-18T11:32:22.008Z,3.62
2022-10-18T11:34:09.114Z,3.36
2022-10-18T11:37:26.738Z,3.77
2022-10-18T11:38:35.383Z,4.63
2022-10-18T11:40:09.879Z,3.96
2022-10-18T11:41:38.030Z,3.87
2022-10-18T11:46:02.914Z,3.60
2022-10-18T11:48:51.471Z,3.38
2022-10-18T11:50:29.045Z,3.77
2022-10-18T11:53:30.443Z,3.36
2022-10-18T11:54:58.251Z,3.76
2022-10-18T11:56:42.594Z,3.28
2022-10-18T11:58:27.016Z,3.51
2022-10-18T12:01:43.519Z,4.07
2022-10-18T12:03:24.829Z,4.10
2022-10-18T12:05:21.985Z,3.89
2022-10-18T12:06:23.388Z,3.96
2022-10-18T12:09:15.999Z,3.53
2022-10-18T12:10:52.588Z,3.67
2022-10-18T12:12:07.296Z,3.02
2022-10-18T12:15:03.485Z,3.55
2022-10-18T12:16:49.956Z,3.40
2022-10-18T12:17:54.796Z,3.89
2022-10-18T12:19:26.188Z,4.21
2022-10-18T12:20:51.480Z,4.37
2022-10-18T12:23:48.897Z,4.71
2022-10-18T12:25:15.050Z,3.93
2022-10-18T12:26:36.318Z,4.32
2022-10-18T12:28:32.675Z,4.51
2022-10-18T12:30:00.527Z,3.43
2022-10-18T12:31:30.689Z,3.18
2022-10-18T12:33:03.382Z,3.37
2022-10-18T12:34:25.136Z,3.98
2022-10-18T12:36:16.710Z,4.47
2022-10-18T12:39:01.363Z,3.57
2022-10-18T12:41:38.856Z,3.72
2022-10-18T12:43:03.976Z,3.73
2022-10-18T12:44:36.985Z,3.72
2022-10-18T12:45:59.242Z,3.64
2022-10-18T12:47:24.944Z,3.80
2022-10-18T12:49:03.729Z,3.98
2022-10-18T12:50:34.447Z,4.37
2022-10-18T12:51:59.461Z,4.68
2022-10-18T12:53:26.606Z,3.83
2022-10-18T12:55:11.041Z,4.04
2022-10-18T12:56:35.082Z,3.83
2022-10-18T12:58:01.435Z,3.49
2022-10-18T12:59:26.608Z,3.62
2022-10-18T13:00:51.828Z,4.03
2022-10-18T13:03:41.015Z,3.79
2022-10-18T13:05:16.319Z,3.65
2022-10-18T13:06:33.647Z,4.03
2022-10-18T13:09:19.115Z,4.07
2022-10-18T13:10:41.098Z,3.66
2022-10-18T13:12:15.540Z,3.62
2022-10-18T13:13:57.515Z,3.92
2022-10-18T13:15:34.145Z,3.63
2022-10-18T13:17:24.313Z,4.07
2022-10-18T13:18:56.574Z,3.85
2022-10-18T13:20:30.712Z,4.15
2022-10-18T13:22:14.301Z,4.64
2022-10-18T13:23:54.636Z,3.72
2022-10-18T13:25:53.756Z,3.82
2022-10-18T13:27:42.530Z,3.99
2022-10-18T13:29:26.176Z,3.99
2022-10-18T13:31:11.216Z,3.67
2022-10-18T13:34:19.628Z,4.09
2022-10-18T13:36:03.595Z,4.09
2022-10-18T13:37:25.895Z,4.68
2022-10-18T13:38:57.818Z,4.42
2022-10-18T13:40:23.779Z,4.48
2022-10-18T13:41:49.969Z,4.51
2022-10-18T13:45:32.897Z,4.61
2022-10-18T13:47:01.824Z,4.37
2022-10-18T13:48:38.586Z,4.42
2022-10-18T13:53:03.347Z,4.56
2022-10-18T13:55:52.116Z,3.97
2022-10-18T13:57:17.265Z,4.82
2022-10-18T13:59:06.171Z,4.84
2022-10-18T14:00:44.904Z,5.20
2022-10-18T14:02:49.781Z,5.79
2022-10-18T14:06:10.114Z,6.46
2022-10-18T14:07:31.885Z,4.41
2022-10-18T14:09:26.255Z,6.10
2022-10-18T14:12:28.049Z,5.97
2022-10-18T14:15:28.256Z,5.82
2022-10-18T14:18:14.712Z,4.77
2022-10-18T14:19:57.620Z,5.56
2022-10-18T14:21:22.670Z,5.99
2022-10-18T14:22:53.920Z,5.38
2022-10-18T14:24:18.796Z,4.52
2022-10-18T14:25:40.620Z,5.29
2022-10-18T14:27:12.564Z,4.65
2022-10-18T14:28:55.062Z,4.62
2022-10-18T14:30:15.510Z,5.32
2022-10-18T14:31:40.557Z,4.90
2022-10-18T14:33:02.326Z,5.48
2022-10-18T14:34:25.090Z,4.81
2022-10-18T14:35:46.482Z,4.99
2022-10-18T14:37:07.760Z,5.38
2022-10-18T14:38:28.850Z,5.60
2022-10-18T14:39:50.140Z,6.23
2022-10-18T14:41:14.153Z,6.25
2022-10-18T14:42:36.027Z,8.24
2022-10-18T14:44:21.079Z,7.41
2022-10-18T14:45:42.904Z,7.35
2022-10-18T14:47:17.206Z,9.27
2022-10-18T14:48:38.175Z,9.45
2022-10-18T14:49:59.722Z,5.45
2022-10-18T14:51:21.052Z,8.32
2022-10-18T14:52:42.261Z,9.10
2022-10-18T14:54:05.792Z,9.96
2022-10-18T14:55:27.365Z,14.58
2022-10-18T14:56:51.451Z,11.11
2022-10-18T14:58:14.195Z,12.38
2022-10-18T14:59:42.950Z,11.78
2022-10-18T15:01:04.817Z,11.84
2022-10-18T15:02:30.076Z,13.64
2022-10-18T15:03:57.074Z,13.16
2022-10-18T15:05:20.785Z,20.49
2022-10-18T15:06:42.604Z,19.42
2022-10-18T15:08:04.051Z,17.78
2022-10-18T15:10:48.230Z,15.81
2022-10-18T15:12:11.447Z,14.22
2022-10-18T15:13:34.893Z,13.99
2022-10-18T15:14:55.858Z,12.62
2022-10-18T15:16:20.539Z,11.18
2022-10-18T15:17:41.957Z,14.51
2022-10-18T15:20:27.228Z,14.99
2022-10-18T15:21:53.542Z,17.80
2022-10-18T15:23:23.950Z,18.31
2022-10-18T15:24:45.016Z,18.11
2022-10-18T15:26:09.292Z,19.34
2022-10-18T15:27:32.346Z,16.66
2022-10-18T15:28:54.304Z,16.96
2022-10-18T15:30:19.233Z,17.46
2022-10-18T15:31:41.327Z,58.61
2022-10-18T15:33:04.666Z,59.37
2022-10-18T15:34:28.946Z,46.41
2022-10-18T15:35:51.890Z,52.24
2022-10-18T15:38:47.672Z,31.07
2022-10-18T15:40:30.126Z,45.60
2022-10-18T15:41:55.470Z,51.68
2022-10-18T15:44:49.377Z,44.01
2022-10-18T15:46:30.748Z,35.38
2022-10-18T15:48:04.547Z,37.03
2022-10-18T15:49:47.864Z,35.06
2022-10-18T15:52:40.834Z,27.64
2022-10-18T15:54:02.569Z,28.14
2022-10-18T15:55:33.700Z,26.24
2022-10-18T15:56:56.168Z,24.07
2022-10-18T15:58:21.447Z,26.38
2022-10-18T15:59:53.982Z,24.26
2022-10-18T16:01:19.519Z,21.47
2022-10-18T16:02:41.146Z,20.37
2022-10-18T16:05:23.919Z,20.77
2022-10-18T16:06:45.028Z,19.03
2022-10-18T16:08:06.283Z,17.03
2022-10-18T16:09:28.461Z,21.54
2022-10-18T16:10:51.197Z,20.47
2022-10-18T16:12:13.142Z,20.44
2022-10-18T16:13:34.518Z,16.12
2022-10-18T16:14:55.868Z,19.10
2022-10-18T16:16:21.906Z,16.94
2022-10-18T16:17:43.126Z,18.43
2022-10-18T16:19:04.180Z,22.78
2022-10-18T16:20:25.899Z,17.89
2022-10-18T16:21:46.984Z,16.79
2022-10-18T16:23:22.486Z,18.65
2022-10-18T16:24:43.746Z,18.99
2022-10-18T16:26:05.143Z,23.26
2022-10-18T16:27:26.557Z,21.23
2022-10-18T16:28:48.183Z,28.07
2022-10-18T16:31:34.434Z,29.84
2022-10-18T16:32:56.336Z,27.92
2022-10-18T16:34:17.682Z,27.78
2022-10-18T16:35:39.097Z,28.99
2022-10-18T16:37:00.421Z,28.81
2022-10-18T16:38:24.894Z,25.22
2022-10-18T16:39:46.265Z,29.88
2022-10-18T16:41:08.382Z,30.51
2022-10-18T16:42:30.381Z,31.72
2022-10-18T16:43:52.401Z,32.20
2022-10-18T16:45:13.840Z,32.98
2022-10-18T16:46:35.346Z,33.68
2022-10-18T16:47:57.721Z,32.86
2022-10-18T16:49:23.199Z,34.97
2022-10-18T16:50:44.424Z,34.08
2022-10-18T16:52:05.498Z,33.07
2022-10-18T16:53:26.881Z,35.55
2022-10-18T16:54:47.903Z,35.31
2022-10-18T16:57:25.860Z,35.64
2022-10-18T16:58:47.165Z,34.92
2022-10-18T17:00:17.900Z,36.24
2022-10-18T17:01:39.297Z,36.96
2022-10-18T17:03:00.650Z,35.34
2022-10-18T17:04:21.681Z,34.98
2022-10-18T17:05:43.812Z,33.49
2022-10-18T17:07:04.911Z,36.26
2022-10-18T17:08:26.856Z,36.23
2022-10-18T17:09:47.942Z,34.42
2022-10-18T17:11:10.442Z,33.43
2022-10-18T17:12:32.532Z,26.21
2022-10-18T17:13:54.183Z,33.26
2022-10-18T17:15:15.627Z,33.59
2022-10-18T17:16:37.182Z,33.29
2022-10-18T17:17:58.788Z,32.29
2022-10-18T17:19:20.206Z,44.02
2022-10-18T17:20:42.388Z,44.03
2022-10-18T17:22:03.848Z,30.96
2022-10-18T17:23:25.373Z,34.74
2022-10-18T17:24:46.837Z,35.74
2022-10-18T17:26:33.172Z,36.88
2022-10-18T17:27:41.999Z,35.74
2022-10-18T17:29:06.536Z,31.52
2022-10-18T17:30:28.075Z,35.61
2022-10-18T17:31:49.237Z,31.78
2022-10-18T17:33:11.009Z,28.68
2022-10-18T17:34:32.663Z,29.90
2022-10-18T17:35:54.501Z,27.91
2022-10-18T17:37:16.607Z,28.06
2022-10-18T17:38:38.784Z,27.94
2022-10-18T17:39:59.798Z,26.47
2022-10-18T17:41:20.831Z,27.12
2022-10-18T17:42:42.450Z,30.02
2022-10-18T17:44:03.663Z,28.09
2022-10-18T17:45:26.043Z,29.18
2022-10-18T17:46:48.996Z,27.94
2022-10-18T17:49:32.035Z,28.44
2022-10-18T17:50:53.995Z,21.99
2022-10-18T17:52:16.878Z,22.78
2022-10-18T17:53:38.661Z,29.49
2022-10-18T17:54:59.953Z,28.72
2022-10-18T17:56:21.716Z,30.21
2022-10-18T17:57:43.102Z,31.37
2022-10-18T17:59:07.195Z,31.40
2022-10-18T18:00:30.122Z,29.24
2022-10-18T18:01:51.227Z,31.16
2022-10-18T18:03:12.548Z,30.15
2022-10-18T18:04:33.864Z,29.48
2022-10-18T18:05:55.283Z,29.74
2022-10-18T18:07:16.244Z,29.64
2022-10-18T18:08:37.223Z,30.64
2022-10-18T18:09:58.588Z,29.01
2022-10-18T18:11:20.181Z,29.84
2022-10-18T18:12:42.416Z,29.34
2022-10-18T18:14:04.132Z,29.59
2022-10-18T18:15:25.966Z,23.41
2022-10-18T18:16:46.965Z,29.53
2022-10-18T18:18:08.289Z,29.23
2022-10-18T18:19:30.289Z,34.31
2022-10-18T18:20:55.712Z,35.36
2022-10-18T18:22:17.908Z,36.64
2022-10-18T18:23:38.905Z,35.27
2022-10-18T18:25:07.020Z,34.10
2022-10-18T18:26:35.996Z,30.96
2022-10-18T18:27:57.196Z,29.26
2022-10-18T18:29:27.245Z,28.29
2022-10-18T18:30:48.568Z,29.79
2022-10-18T18:32:09.858Z,26.19
2022-10-18T18:33:34.885Z,27.16
2022-10-18T18:35:03.744Z,27.05
2022-10-18T18:36:32.214Z,29.57
2022-10-18T18:37:53.664Z,26.38
2022-10-18T18:39:18.522Z,26.92
2022-10-18T18:40:46.408Z,28.97
2022-10-18T18:42:08.227Z,24.96
2022-10-18T18:43:29.241Z,28.75
2022-10-18T18:44:50.505Z,27.66
2022-10-18T18:46:19.246Z,25.72
2022-10-18T18:47:40.476Z,25.78
2022-10-18T18:49:02.322Z,25.28
2022-10-18T18:50:23.675Z,24.21
2022-10-18T18:51:44.822Z,25.07
2022-10-18T18:53:06.211Z,25.00
2022-10-18T18:54:29.530Z,24.94
2022-10-18T18:57:13.389Z,24.28
2022-10-18T18:58:35.319Z,24.42
2022-10-18T18:59:56.269Z,25.41
2022-10-18T19:01:21.893Z,24.92
2022-10-18T19:02:43.353Z,24.64
2022-10-18T19:04:08.272Z,24.95
2022-10-18T19:05:29.523Z,25.37
2022-10-18T19:06:51.060Z,25.41
2022-10-18T19:08:12.293Z,25.59
2022-10-18T19:09:35.034Z,19.48
2022-10-18T19:10:56.284Z,26.07
2022-10-18T19:12:20.528Z,27.10
2022-10-18T19:15:01.364Z,26.10
2022-10-18T19:16:32.228Z,27.07
2022-10-18T19:17:54.946Z,26.09
2022-10-18T19:19:20.702Z,26.48
2022-10-18T19:20:41.944Z,26.69
2022-10-18T19:22:03.290Z,26.99
2022-10-18T19:24:46.905Z,28.40
2022-10-18T19:27:24.904Z,30.54
2022-10-18T19:28:46.563Z,32.47
2022-10-18T19:30:09.003Z,41.18
2022-10-18T19:31:31.486Z,33.86
2022-10-18T19:32:52.552Z,33.87
2022-10-18T19:34:14.670Z,31.86
2022-10-18T19:35:35.784Z,30.10
2022-10-18T19:36:58.585Z,29.64
2022-10-18T19:38:20.024Z,29.02
2022-10-18T19:39:41.894Z,29.52
2022-10-18T19:41:03.382Z,26.82
2022-10-18T19:42:27.474Z,27.33
2022-10-18T19:45:08.766Z,27.02
2022-10-18T19:46:30.773Z,28.11
2022-10-18T19:47:51.886Z,29.69
2022-10-18T19:49:12.899Z,30.84
2022-10-18T19:50:34.822Z,31.48
2022-10-18T19:51:57.965Z,30.46
2022-10-18T19:53:19.199Z,29.41
2022-10-18T19:54:40.774Z,28.53
2022-10-18T19:56:03.134Z,28.33
2022-10-18T19:57:24.540Z,27.00
2022-10-18T19:58:46.037Z,26.66
2022-10-18T20:00:12.523Z,27.49
2022-10-18T20:01:34.640Z,26.57
2022-10-18T20:02:55.959Z,26.63
2022-10-18T20:04:16.871Z,26.48
2022-10-18T20:05:38.386Z,27.89
2022-10-18T20:07:00.225Z,27.58
2022-10-18T20:08:22.218Z,28.98
2022-10-18T20:09:43.450Z,30.24
2022-10-18T20:11:15.583Z,31.68